Terminal Aerodrome Forecast
Issued by NWS Memphis, TN

Home | Current Version | Previous Version | Text Only | Print | Product List | Glossary On
Versions: 1 2 3 4 5 6 7 8 9 10 11 12 13 14 15 16 17 18 19 20 21 22 23 24 25 26 27 28 29 30 31
000
FTUS44 KMEG 231413 AAB
TAFMEM
TAF AMD
KMEM 231413Z 2314/2412 21018G32KT 6SM -RA BR OVC015 WS020/22055KT
     FM231500 23015G21KT P6SM -SHRA OVC009 WS020/22055KT
     FM231900 26012G19KT P6SM -SHRA BKN015
     FM240000 28006KT P6SM SHRA OVC025
     FM240600 03004KT P6SM OVC050=

USA.gov is the U.S. government's official web portal to all federal, state and local government web resources and services.